sensor_id;sensor_type;location;lat;lon;timestamp;P1;durP1;ratioP1;P2;durP2;ratioP2
25752;SDS011;13600;50.816;4.416;2023-07-22T00:01:17;15.93;;;8.90;;
25752;SDS011;13600;50.816;4.416;2023-07-22T00:03:42;15.10;;;9.57;;
25752;SDS011;13600;50.816;4.416;2023-07-22T00:06:09;14.80;;;9.25;;
25752;SDS011;13600;50.816;4.416;2023-07-22T00:08:35;15.23;;;9.18;;
25752;SDS011;13600;50.816;4.416;2023-07-22T00:11:02;12.98;;;9.30;;
25752;SDS011;13600;50.816;4.416;2023-07-22T00:13:28;15.20;;;9.48;;
25752;SDS011;13600;50.816;4.416;2023-07-22T00:15:54;15.15;;;9.95;;
25752;SDS011;13600;50.816;4.416;2023-07-22T00:18:21;19.38;;;10.45;;
25752;SDS011;13600;50.816;4.416;2023-07-22T00:20:47;15.05;;;9.77;;
25752;SDS011;13600;50.816;4.416;2023-07-22T00:23:13;15.40;;;9.93;;
25752;SDS011;13600;50.816;4.416;2023-07-22T00:25:40;15.88;;;9.88;;
25752;SDS011;13600;50.816;4.416;2023-07-22T00:28:06;13.95;;;9.88;;
25752;SDS011;13600;50.816;4.416;2023-07-22T00:30:31;13.82;;;10.05;;
25752;SDS011;13600;50.816;4.416;2023-07-22T00:32:57;15.57;;;10.23;;
25752;SDS011;13600;50.816;4.416;2023-07-22T00:35:23;13.35;;;10.18;;
25752;SDS011;13600;50.816;4.416;2023-07-22T00:37:48;16.52;;;10.40;;
25752;SDS011;13600;50.816;4.416;2023-07-22T00:40:14;18.88;;;11.00;;
25752;SDS011;13600;50.816;4.416;2023-07-22T00:42:40;16.58;;;10.07;;
25752;SDS011;13600;50.816;4.416;2023-07-22T00:45:06;16.42;;;10.10;;
25752;SDS011;13600;50.816;4.416;2023-07-22T00:47:33;14.45;;;9.90;;
25752;SDS011;13600;50.816;4.416;2023-07-22T00:50:00;21.25;;;10.77;;
25752;SDS011;13600;50.816;4.416;2023-07-22T00:52:27;19.63;;;10.40;;
25752;SDS011;13600;50.816;4.416;2023-07-22T00:54:53;16.95;;;10.35;;
25752;SDS011;13600;50.816;4.416;2023-07-22T00:57:20;17.38;;;10.05;;
25752;SDS011;13600;50.816;4.416;2023-07-22T00:59:45;17.40;;;10.55;;
25752;SDS011;13600;50.816;4.416;2023-07-22T01:02:11;18.55;;;10.70;;
25752;SDS011;13600;50.816;4.416;2023-07-22T01:04:37;20.60;;;10.80;;
25752;SDS011;13600;50.816;4.416;2023-07-22T01:07:06;17.05;;;10.73;;
25752;SDS011;13600;50.816;4.416;2023-07-22T01:09:36;15.93;;;10.43;;
25752;SDS011;13600;50.816;4.416;2023-07-22T01:12:03;19.30;;;10.30;;
25752;SDS011;13600;50.816;4.416;2023-07-22T01:14:31;16.98;;;10.05;;
25752;SDS011;13600;50.816;4.416;2023-07-22T01:17:04;19.42;;;11.45;;
25752;SDS011;13600;50.816;4.416;2023-07-22T01:19:31;18.05;;;11.10;;
25752;SDS011;13600;50.816;4.416;2023-07-22T01:21:59;19.15;;;11.10;;
25752;SDS011;13600;50.816;4.416;2023-07-22T01:24:25;15.38;;;10.35;;
25752;SDS011;13600;50.816;4.416;2023-07-22T01:26:52;18.05;;;10.80;;
25752;SDS011;13600;50.816;4.416;2023-07-22T01:29:17;17.70;;;11.18;;
25752;SDS011;13600;50.816;4.416;2023-07-22T01:31:45;20.77;;;11.93;;
25752;SDS011;13600;50.816;4.416;2023-07-22T01:34:12;20.00;;;11.20;;
25752;SDS011;13600;50.816;4.416;2023-07-22T01:36:37;17.92;;;10.27;;
25752;SDS011;13600;50.816;4.416;2023-07-22T01:39:03;24.70;;;11.10;;
25752;SDS011;13600;50.816;4.416;2023-07-22T01:41:30;20.48;;;11.68;;
25752;SDS011;13600;50.816;4.416;2023-07-22T01:43:56;16.40;;;10.55;;
25752;SDS011;13600;50.816;4.416;2023-07-22T01:46:22;18.48;;;11.10;;
25752;SDS011;13600;50.816;4.416;2023-07-22T01:48:47;21.67;;;11.57;;
25752;SDS011;13600;50.816;4.416;2023-07-22T01:51:13;20.33;;;10.95;;
25752;SDS011;13600;50.816;4.416;2023-07-22T01:53:39;20.75;;;10.63;;
25752;SDS011;13600;50.816;4.416;2023-07-22T01:56:04;15.45;;;10.20;;
25752;SDS011;13600;50.816;4.416;2023-07-22T01:58:30;21.48;;;11.30;;
25752;SDS011;13600;50.816;4.416;2023-07-22T02:00:56;17.27;;;11.25;;
25752;SDS011;13600;50.816;4.416;2023-07-22T02:03:21;23.15;;;10.73;;
25752;SDS011;13600;50.816;4.416;2023-07-22T02:05:47;18.83;;;11.15;;
25752;SDS011;13600;50.816;4.416;2023-07-22T02:08:13;18.77;;;11.48;;
25752;SDS011;13600;50.816;4.416;2023-07-22T02:10:39;24.45;;;11.25;;
25752;SDS011;13600;50.816;4.416;2023-07-22T02:13:05;19.05;;;11.35;;
25752;SDS011;13600;50.816;4.416;2023-07-22T02:15:31;15.52;;;10.38;;
25752;SDS011;13600;50.816;4.416;2023-07-22T02:17:57;19.27;;;11.40;;
25752;SDS011;13600;50.816;4.416;2023-07-22T02:20:23;20.50;;;12.13;;
25752;SDS011;13600;50.816;4.416;2023-07-22T02:22:51;23.75;;;11.75;;
25752;SDS011;13600;50.816;4.416;2023-07-22T02:25:17;19.67;;;11.10;;
25752;SDS011;13600;50.816;4.416;2023-07-22T02:27:43;20.25;;;12.18;;
25752;SDS011;13600;50.816;4.416;2023-07-22T02:30:08;21.15;;;11.88;;
25752;SDS011;13600;50.816;4.416;2023-07-22T02:32:40;19.45;;;11.93;;
25752;SDS011;13600;50.816;4.416;2023-07-22T02:35:06;19.95;;;12.38;;
25752;SDS011;13600;50.816;4.416;2023-07-22T02:37:33;20.10;;;11.63;;
25752;SDS011;13600;50.816;4.416;2023-07-22T02:39:59;23.23;;;11.73;;
25752;SDS011;13600;50.816;4.416;2023-07-22T02:42:25;21.48;;;12.93;;
25752;SDS011;13600;50.816;4.416;2023-07-22T02:44:51;20.23;;;11.95;;
25752;SDS011;13600;50.816;4.416;2023-07-22T02:47:16;20.17;;;11.77;;
25752;SDS011;13600;50.816;4.416;2023-07-22T02:49:43;26.58;;;12.85;;
25752;SDS011;13600;50.816;4.416;2023-07-22T02:52:08;24.60;;;12.98;;
25752;SDS011;13600;50.816;4.416;2023-07-22T02:54:38;24.42;;;12.70;;
25752;SDS011;13600;50.816;4.416;2023-07-22T02:57:05;24.13;;;13.65;;
25752;SDS011;13600;50.816;4.416;2023-07-22T02:59:30;30.80;;;13.73;;
25752;SDS011;13600;50.816;4.416;2023-07-22T03:01:57;21.65;;;12.80;;
25752;SDS011;13600;50.816;4.416;2023-07-22T03:04:22;23.33;;;13.93;;
25752;SDS011;13600;50.816;4.416;2023-07-22T03:06:48;25.17;;;12.98;;
25752;SDS011;13600;50.816;4.416;2023-07-22T03:09:13;25.92;;;13.90;;
25752;SDS011;13600;50.816;4.416;2023-07-22T03:11:40;27.55;;;14.35;;
25752;SDS011;13600;50.816;4.416;2023-07-22T03:14:06;26.10;;;13.85;;
25752;SDS011;13600;50.816;4.416;2023-07-22T03:16:31;29.48;;;14.18;;
25752;SDS011;13600;50.816;4.416;2023-07-22T03:18:57;25.67;;;14.30;;
25752;SDS011;13600;50.816;4.416;2023-07-22T03:21:22;26.75;;;14.52;;
25752;SDS011;13600;50.816;4.416;2023-07-22T03:23:48;28.75;;;15.00;;
25752;SDS011;13600;50.816;4.416;2023-07-22T03:26:14;23.83;;;14.40;;
25752;SDS011;13600;50.816;4.416;2023-07-22T03:28:40;25.60;;;14.32;;
25752;SDS011;13600;50.816;4.416;2023-07-22T03:31:06;26.10;;;13.98;;
25752;SDS011;13600;50.816;4.416;2023-07-22T03:33:33;27.80;;;14.30;;
25752;SDS011;13600;50.816;4.416;2023-07-22T03:35:59;30.55;;;14.82;;
25752;SDS011;13600;50.816;4.416;2023-07-22T03:38:25;25.70;;;14.05;;
25752;SDS011;13600;50.816;4.416;2023-07-22T03:40:51;28.15;;;14.25;;
25752;SDS011;13600;50.816;4.416;2023-07-22T03:43:19;25.15;;;14.45;;
25752;SDS011;13600;50.816;4.416;2023-07-22T03:45:45;24.00;;;13.75;;
25752;SDS011;13600;50.816;4.416;2023-07-22T03:48:10;34.15;;;15.55;;
25752;SDS011;13600;50.816;4.416;2023-07-22T03:50:36;31.08;;;13.90;;
25752;SDS011;13600;50.816;4.416;2023-07-22T03:53:02;26.17;;;14.30;;
25752;SDS011;13600;50.816;4.416;2023-07-22T03:55:27;25.88;;;14.13;;
25752;SDS011;13600;50.816;4.416;2023-07-22T03:57:53;27.73;;;14.32;;
25752;SDS011;13600;50.816;4.416;2023-07-22T04:00:19;24.35;;;13.95;;
25752;SDS011;13600;50.816;4.416;2023-07-22T04:02:46;36.28;;;14.27;;
25752;SDS011;13600;50.816;4.416;2023-07-22T04:05:12;26.02;;;13.93;;
25752;SDS011;13600;50.816;4.416;2023-07-22T04:07:38;30.67;;;13.63;;
25752;SDS011;13600;50.816;4.416;2023-07-22T04:10:04;23.08;;;13.57;;
25752;SDS011;13600;50.816;4.416;2023-07-22T04:12:30;29.85;;;12.75;;
25752;SDS011;13600;50.816;4.416;2023-07-22T04:14:56;24.45;;;13.50;;
25752;SDS011;13600;50.816;4.416;2023-07-22T04:17:22;25.50;;;13.50;;
25752;SDS011;13600;50.816;4.416;2023-07-22T04:19:47;21.25;;;12.95;;
25752;SDS011;13600;50.816;4.416;2023-07-22T04:22:13;30.25;;;12.85;;
25752;SDS011;13600;50.816;4.416;2023-07-22T04:24:38;27.27;;;13.85;;
25752;SDS011;13600;50.816;4.416;2023-07-22T04:27:04;25.20;;;13.40;;
25752;SDS011;13600;50.816;4.416;2023-07-22T04:29:30;32.20;;;13.85;;
25752;SDS011;13600;50.816;4.416;2023-07-22T04:32:00;24.08;;;13.07;;
25752;SDS011;13600;50.816;4.416;2023-07-22T04:34:32;22.85;;;12.80;;
25752;SDS011;13600;50.816;4.416;2023-07-22T04:36:57;31.35;;;13.55;;
25752;SDS011;13600;50.816;4.416;2023-07-22T04:39:23;22.95;;;13.52;;
25752;SDS011;13600;50.816;4.416;2023-07-22T04:41:49;24.38;;;13.07;;
25752;SDS011;13600;50.816;4.416;2023-07-22T04:44:16;24.63;;;13.38;;
25752;SDS011;13600;50.816;4.416;2023-07-22T04:46:42;25.55;;;13.35;;
25752;SDS011;13600;50.816;4.416;2023-07-22T04:49:08;28.58;;;13.70;;
25752;SDS011;13600;50.816;4.416;2023-07-22T04:51:33;25.88;;;13.48;;
25752;SDS011;13600;50.816;4.416;2023-07-22T04:53:59;23.83;;;12.60;;
25752;SDS011;13600;50.816;4.416;2023-07-22T04:56:25;29.17;;;13.32;;
25752;SDS011;13600;50.816;4.416;2023-07-22T04:58:50;30.67;;;13.00;;
25752;SDS011;13600;50.816;4.416;2023-07-22T05:01:16;29.98;;;12.25;;
25752;SDS011;13600;50.816;4.416;2023-07-22T05:03:41;28.95;;;13.23;;
25752;SDS011;13600;50.816;4.416;2023-07-22T05:06:08;28.95;;;13.45;;
25752;SDS011;13600;50.816;4.416;2023-07-22T05:08:33;28.92;;;13.30;;
25752;SDS011;13600;50.816;4.416;2023-07-22T05:10:59;26.08;;;12.48;;
25752;SDS011;13600;50.816;4.416;2023-07-22T05:13:25;25.05;;;12.50;;
25752;SDS011;13600;50.816;4.416;2023-07-22T05:15:51;23.00;;;12.27;;
25752;SDS011;13600;50.816;4.416;2023-07-22T05:18:16;26.77;;;12.82;;
25752;SDS011;13600;50.816;4.416;2023-07-22T05:20:42;27.25;;;12.63;;
25752;SDS011;13600;50.816;4.416;2023-07-22T05:23:07;35.75;;;13.02;;
25752;SDS011;13600;50.816;4.416;2023-07-22T05:25:33;25.17;;;12.45;;
25752;SDS011;13600;50.816;4.416;2023-07-22T05:27:58;23.48;;;11.93;;
25752;SDS011;13600;50.816;4.416;2023-07-22T05:30:24;23.05;;;11.60;;
25752;SDS011;13600;50.816;4.416;2023-07-22T05:32:52;24.27;;;11.88;;
25752;SDS011;13600;50.816;4.416;2023-07-22T05:35:18;20.35;;;11.20;;
25752;SDS011;13600;50.816;4.416;2023-07-22T05:37:44;23.42;;;10.20;;
25752;SDS011;13600;50.816;4.416;2023-07-22T05:40:10;25.90;;;10.88;;
25752;SDS011;13600;50.816;4.416;2023-07-22T05:42:35;27.23;;;10.88;;
25752;SDS011;13600;50.816;4.416;2023-07-22T05:45:02;24.02;;;9.85;;
25752;SDS011;13600;50.816;4.416;2023-07-22T05:47:28;22.92;;;10.02;;
25752;SDS011;13600;50.816;4.416;2023-07-22T05:49:54;22.27;;;10.02;;
25752;SDS011;13600;50.816;4.416;2023-07-22T05:52:19;22.15;;;9.65;;
25752;SDS011;13600;50.816;4.416;2023-07-22T05:54:45;18.92;;;8.93;;
25752;SDS011;13600;50.816;4.416;2023-07-22T05:57:10;20.75;;;8.68;;
25752;SDS011;13600;50.816;4.416;2023-07-22T05:59:36;20.67;;;8.68;;
25752;SDS011;13600;50.816;4.416;2023-07-22T06:02:03;23.58;;;9.05;;
25752;SDS011;13600;50.816;4.416;2023-07-22T06:04:29;20.42;;;9.23;;
25752;SDS011;13600;50.816;4.416;2023-07-22T06:06:54;25.65;;;8.77;;
25752;SDS011;13600;50.816;4.416;2023-07-22T06:09:20;18.80;;;8.20;;
25752;SDS011;13600;50.816;4.416;2023-07-22T06:11:46;18.05;;;8.07;;
25752;SDS011;13600;50.816;4.416;2023-07-22T06:14:11;20.67;;;7.47;;
25752;SDS011;13600;50.816;4.416;2023-07-22T06:16:37;20.83;;;7.97;;
25752;SDS011;13600;50.816;4.416;2023-07-22T06:19:03;21.65;;;7.88;;
25752;SDS011;13600;50.816;4.416;2023-07-22T06:21:29;15.85;;;7.72;;
25752;SDS011;13600;50.816;4.416;2023-07-22T06:23:55;17.83;;;7.60;;
25752;SDS011;13600;50.816;4.416;2023-07-22T06:26:21;16.92;;;6.97;;
25752;SDS011;13600;50.816;4.416;2023-07-22T06:28:47;18.35;;;7.70;;
25752;SDS011;13600;50.816;4.416;2023-07-22T06:31:12;17.25;;;7.22;;
25752;SDS011;13600;50.816;4.416;2023-07-22T06:33:38;23.77;;;7.97;;
25752;SDS011;13600;50.816;4.416;2023-07-22T06:36:04;16.42;;;7.35;;
25752;SDS011;13600;50.816;4.416;2023-07-22T06:38:30;20.30;;;7.32;;
25752;SDS011;13600;50.816;4.416;2023-07-22T06:40:56;16.85;;;7.22;;
25752;SDS011;13600;50.816;4.416;2023-07-22T06:43:22;18.45;;;7.38;;
25752;SDS011;13600;50.816;4.416;2023-07-22T06:45:48;20.83;;;7.28;;
25752;SDS011;13600;50.816;4.416;2023-07-22T06:48:13;20.13;;;7.43;;
25752;SDS011;13600;50.816;4.416;2023-07-22T06:50:39;17.45;;;7.25;;
25752;SDS011;13600;50.816;4.416;2023-07-22T06:53:04;21.35;;;7.38;;
25752;SDS011;13600;50.816;4.416;2023-07-22T06:55:30;15.93;;;6.82;;
25752;SDS011;13600;50.816;4.416;2023-07-22T06:57:56;15.20;;;6.63;;
25752;SDS011;13600;50.816;4.416;2023-07-22T07:00:21;11.80;;;6.82;;
25752;SDS011;13600;50.816;4.416;2023-07-22T07:02:47;18.80;;;7.03;;
25752;SDS011;13600;50.816;4.416;2023-07-22T07:05:13;15.05;;;6.95;;
25752;SDS011;13600;50.816;4.416;2023-07-22T07:07:38;15.52;;;6.60;;
25752;SDS011;13600;50.816;4.416;2023-07-22T07:10:06;13.32;;;6.50;;
25752;SDS011;13600;50.816;4.416;2023-07-22T07:12:32;19.90;;;6.60;;
25752;SDS011;13600;50.816;4.416;2023-07-22T07:14:57;16.08;;;7.10;;
25752;SDS011;13600;50.816;4.416;2023-07-22T07:17:23;20.10;;;6.07;;
25752;SDS011;13600;50.816;4.416;2023-07-22T07:19:48;15.45;;;6.05;;
25752;SDS011;13600;50.816;4.416;2023-07-22T07:22:14;13.63;;;6.93;;
25752;SDS011;13600;50.816;4.416;2023-07-22T07:24:40;14.80;;;6.40;;
25752;SDS011;13600;50.816;4.416;2023-07-22T07:27:05;17.88;;;6.68;;
25752;SDS011;13600;50.816;4.416;2023-07-22T07:29:31;18.67;;;6.43;;
25752;SDS011;13600;50.816;4.416;2023-07-22T07:31:57;17.25;;;6.75;;
25752;SDS011;13600;50.816;4.416;2023-07-22T07:34:22;17.55;;;6.88;;
25752;SDS011;13600;50.816;4.416;2023-07-22T07:36:48;16.70;;;6.80;;
25752;SDS011;13600;50.816;4.416;2023-07-22T07:39:13;21.17;;;7.53;;
25752;SDS011;13600;50.816;4.416;2023-07-22T07:41:39;14.18;;;6.20;;
25752;SDS011;13600;50.816;4.416;2023-07-22T07:44:05;17.27;;;5.90;;
25752;SDS011;13600;50.816;4.416;2023-07-22T07:46:31;20.67;;;6.68;;
25752;SDS011;13600;50.816;4.416;2023-07-22T07:48:57;12.43;;;5.72;;
25752;SDS011;13600;50.816;4.416;2023-07-22T07:51:27;15.05;;;5.50;;
25752;SDS011;13600;50.816;4.416;2023-07-22T07:53:54;14.20;;;5.22;;
25752;SDS011;13600;50.816;4.416;2023-07-22T07:56:20;14.82;;;5.90;;
25752;SDS011;13600;50.816;4.416;2023-07-22T07:58:48;11.55;;;5.10;;
25752;SDS011;13600;50.816;4.416;2023-07-22T08:01:15;12.65;;;5.55;;
25752;SDS011;13600;50.816;4.416;2023-07-22T08:03:41;12.40;;;4.88;;
25752;SDS011;13600;50.816;4.416;2023-07-22T08:06:08;13.38;;;5.15;;
25752;SDS011;13600;50.816;4.416;2023-07-22T08:08:35;12.52;;;5.35;;
25752;SDS011;13600;50.816;4.416;2023-07-22T08:11:01;11.98;;;4.60;;
25752;SDS011;13600;50.816;4.416;2023-07-22T08:13:35;17.52;;;5.30;;
25752;SDS011;13600;50.816;4.416;2023-07-22T08:16:02;16.85;;;5.47;;
25752;SDS011;13600;50.816;4.416;2023-07-22T08:18:30;13.73;;;5.05;;
25752;SDS011;13600;50.816;4.416;2023-07-22T08:20:56;10.50;;;4.55;;
25752;SDS011;13600;50.816;4.416;2023-07-22T08:23:22;14.27;;;5.20;;
25752;SDS011;13600;50.816;4.416;2023-07-22T08:25:48;11.85;;;4.70;;
25752;SDS011;13600;50.816;4.416;2023-07-22T08:28:15;13.15;;;4.85;;
25752;SDS011;13600;50.816;4.416;2023-07-22T08:30:40;16.23;;;4.32;;
25752;SDS011;13600;50.816;4.416;2023-07-22T08:33:07;9.95;;;4.43;;
25752;SDS011;13600;50.816;4.416;2023-07-22T08:35:34;9.35;;;4.30;;
25752;SDS011;13600;50.816;4.416;2023-07-22T08:38:00;13.90;;;4.03;;
25752;SDS011;13600;50.816;4.416;2023-07-22T08:40:27;16.55;;;3.85;;
25752;SDS011;13600;50.816;4.416;2023-07-22T08:42:57;13.90;;;4.10;;
25752;SDS011;13600;50.816;4.416;2023-07-22T08:45:23;14.32;;;4.20;;
25752;SDS011;13600;50.816;4.416;2023-07-22T08:47:54;10.90;;;3.47;;
25752;SDS011;13600;50.816;4.416;2023-07-22T08:50:23;8.88;;;3.55;;
25752;SDS011;13600;50.816;4.416;2023-07-22T08:52:54;12.68;;;4.03;;
25752;SDS011;13600;50.816;4.416;2023-07-22T08:55:20;14.38;;;3.80;;
25752;SDS011;13600;50.816;4.416;2023-07-22T08:57:47;11.32;;;3.78;;
25752;SDS011;13600;50.816;4.416;2023-07-22T09:00:14;12.20;;;3.20;;
25752;SDS011;13600;50.816;4.416;2023-07-22T09:02:40;12.63;;;3.50;;
25752;SDS011;13600;50.816;4.416;2023-07-22T09:05:07;9.90;;;3.00;;
25752;SDS011;13600;50.816;4.416;2023-07-22T09:07:34;8.55;;;2.60;;
25752;SDS011;13600;50.816;4.416;2023-07-22T09:10:00;5.97;;;2.42;;
25752;SDS011;13600;50.816;4.416;2023-07-22T09:12:27;8.38;;;2.58;;
25752;SDS011;13600;50.816;4.416;2023-07-22T09:14:53;7.75;;;2.72;;
25752;SDS011;13600;50.816;4.416;2023-07-22T09:17:19;6.82;;;2.13;;
25752;SDS011;13600;50.816;4.416;2023-07-22T09:19:45;6.93;;;2.60;;
25752;SDS011;13600;50.816;4.416;2023-07-22T09:22:10;7.85;;;2.28;;
25752;SDS011;13600;50.816;4.416;2023-07-22T09:24:36;5.95;;;2.17;;
25752;SDS011;13600;50.816;4.416;2023-07-22T09:27:01;6.97;;;2.28;;
25752;SDS011;13600;50.816;4.416;2023-07-22T09:29:32;5.90;;;2.17;;
25752;SDS011;13600;50.816;4.416;2023-07-22T09:31:59;4.88;;;2.00;;
25752;SDS011;13600;50.816;4.416;2023-07-22T09:34:25;6.85;;;2.00;;
25752;SDS011;13600;50.816;4.416;2023-07-22T09:36:55;6.13;;;1.90;;
25752;SDS011;13600;50.816;4.416;2023-07-22T09:39:22;4.13;;;1.95;;
25752;SDS011;13600;50.816;4.416;2023-07-22T09:41:48;6.75;;;2.05;;
25752;SDS011;13600;50.816;4.416;2023-07-22T09:44:14;6.05;;;1.55;;
25752;SDS011;13600;50.816;4.416;2023-07-22T09:46:40;3.22;;;1.80;;
25752;SDS011;13600;50.816;4.416;2023-07-22T09:49:07;3.88;;;1.63;;
25752;SDS011;13600;50.816;4.416;2023-07-22T09:51:34;4.35;;;1.83;;
25752;SDS011;13600;50.816;4.416;2023-07-22T09:54:01;4.60;;;1.75;;
25752;SDS011;13600;50.816;4.416;2023-07-22T09:56:28;5.45;;;2.00;;
25752;SDS011;13600;50.816;4.416;2023-07-22T09:58:54;3.80;;;1.73;;
25752;SDS011;13600;50.816;4.416;2023-07-22T10:01:23;5.97;;;1.80;;
25752;SDS011;13600;50.816;4.416;2023-07-22T10:03:52;5.47;;;1.58;;
25752;SDS011;13600;50.816;4.416;2023-07-22T10:06:26;4.72;;;1.50;;
25752;SDS011;13600;50.816;4.416;2023-07-22T10:08:54;4.70;;;1.80;;
25752;SDS011;13600;50.816;4.416;2023-07-22T10:11:21;4.85;;;1.40;;
25752;SDS011;13600;50.816;4.416;2023-07-22T10:13:50;4.03;;;1.70;;
25752;SDS011;13600;50.816;4.416;2023-07-22T10:16:17;2.88;;;1.35;;
25752;SDS011;13600;50.816;4.416;2023-07-22T10:18:44;4.80;;;1.50;;
25752;SDS011;13600;50.816;4.416;2023-07-22T10:21:12;3.45;;;1.63;;
25752;SDS011;13600;50.816;4.416;2023-07-22T10:23:38;4.38;;;1.35;;
25752;SDS011;13600;50.816;4.416;2023-07-22T10:26:04;5.95;;;1.42;;
25752;SDS011;13600;50.816;4.416;2023-07-22T10:28:30;3.42;;;1.20;;
25752;SDS011;13600;50.816;4.416;2023-07-22T10:30:57;2.15;;;1.23;;
25752;SDS011;13600;50.816;4.416;2023-07-22T10:33:24;2.92;;;1.13;;
25752;SDS011;13600;50.816;4.416;2023-07-22T10:36:06;3.25;;;1.10;;
25752;SDS011;13600;50.816;4.416;2023-07-22T10:38:34;3.80;;;1.10;;
25752;SDS011;13600;50.816;4.416;2023-07-22T10:41:01;3.13;;;1.30;;
25752;SDS011;13600;50.816;4.416;2023-07-22T10:43:35;2.42;;;1.20;;
25752;SDS011;13600;50.816;4.416;2023-07-22T10:46:11;4.47;;;1.60;;
25752;SDS011;13600;50.816;4.416;2023-07-22T10:48:41;3.88;;;1.40;;
25752;SDS011;13600;50.816;4.416;2023-07-22T10:51:09;3.20;;;1.40;;
25752;SDS011;13600;50.816;4.416;2023-07-22T10:53:42;3.20;;;1.50;;
25752;SDS011;13600;50.816;4.416;2023-07-22T11:12:03;6.35;;;1.90;;
25752;SDS011;13600;50.816;4.416;2023-07-22T11:16:59;3.00;;;1.50;;
25752;SDS011;13600;50.816;4.416;2023-07-22T11:19:28;3.53;;;1.50;;
25752;SDS011;13600;50.816;4.416;2023-07-22T11:21:54;2.95;;;1.60;;
25752;SDS011;13600;50.816;4.416;2023-07-22T11:24:20;3.50;;;1.70;;
25752;SDS011;13600;50.816;4.416;2023-07-22T11:26:48;3.33;;;1.50;;
25752;SDS011;13600;50.816;4.416;2023-07-22T11:29:14;4.07;;;1.60;;
25752;SDS011;13600;50.816;4.416;2023-07-22T11:31:41;3.42;;;1.60;;
25752;SDS011;13600;50.816;4.416;2023-07-22T11:34:10;3.85;;;1.90;;
25752;SDS011;13600;50.816;4.416;2023-07-22T11:36:40;4.05;;;1.75;;
25752;SDS011;13600;50.816;4.416;2023-07-22T11:39:13;4.28;;;1.70;;
25752;SDS011;13600;50.816;4.416;2023-07-22T11:41:40;7.00;;;1.73;;
25752;SDS011;13600;50.816;4.416;2023-07-22T11:44:09;5.30;;;1.90;;
25752;SDS011;13600;50.816;4.416;2023-07-22T11:46:55;4.80;;;1.90;;
25752;SDS011;13600;50.816;4.416;2023-07-22T11:49:27;5.82;;;1.98;;
25752;SDS011;13600;50.816;4.416;2023-07-22T11:51:58;4.00;;;1.70;;
25752;SDS011;13600;50.816;4.416;2023-07-22T11:54:26;3.20;;;1.60;;
25752;SDS011;13600;50.816;4.416;2023-07-22T11:56:52;3.85;;;1.80;;
25752;SDS011;13600;50.816;4.416;2023-07-22T11:59:31;5.43;;;1.80;;
25752;SDS011;13600;50.816;4.416;2023-07-22T12:02:02;2.90;;;1.58;;
25752;SDS011;13600;50.816;4.416;2023-07-22T12:04:30;4.18;;;1.52;;
25752;SDS011;13600;50.816;4.416;2023-07-22T12:06:59;4.18;;;1.63;;
25752;SDS011;13600;50.816;4.416;2023-07-22T12:09:26;7.15;;;1.70;;
25752;SDS011;13600;50.816;4.416;2023-07-22T12:11:59;3.53;;;1.50;;
25752;SDS011;13600;50.816;4.416;2023-07-22T12:14:34;3.95;;;1.60;;
25752;SDS011;13600;50.816;4.416;2023-07-22T12:17:00;5.45;;;1.40;;
25752;SDS011;13600;50.816;4.416;2023-07-22T12:19:29;3.03;;;1.60;;
25752;SDS011;13600;50.816;4.416;2023-07-22T12:21:55;3.13;;;1.50;;
25752;SDS011;13600;50.816;4.416;2023-07-22T12:24:21;3.92;;;1.75;;
25752;SDS011;13600;50.816;4.416;2023-07-22T12:26:46;7.88;;;2.05;;
25752;SDS011;13600;50.816;4.416;2023-07-22T12:29:12;3.95;;;1.40;;
25752;SDS011;13600;50.816;4.416;2023-07-22T12:31:38;2.75;;;1.40;;
25752;SDS011;13600;50.816;4.416;2023-07-22T12:34:03;4.57;;;1.67;;
25752;SDS011;13600;50.816;4.416;2023-07-22T12:36:29;6.25;;;1.70;;
25752;SDS011;13600;50.816;4.416;2023-07-22T12:38:55;1.88;;;1.55;;
25752;SDS011;13600;50.816;4.416;2023-07-22T12:41:20;3.47;;;1.60;;
25752;SDS011;13600;50.816;4.416;2023-07-22T12:43:46;4.22;;;1.42;;
25752;SDS011;13600;50.816;4.416;2023-07-22T12:46:12;2.85;;;1.35;;
25752;SDS011;13600;50.816;4.416;2023-07-22T12:48:38;8.13;;;1.63;;
25752;SDS011;13600;50.816;4.416;2023-07-22T12:51:04;4.75;;;1.48;;
25752;SDS011;13600;50.816;4.416;2023-07-22T12:53:30;2.65;;;1.25;;
25752;SDS011;13600;50.816;4.416;2023-07-22T12:55:56;4.18;;;1.40;;
25752;SDS011;13600;50.816;4.416;2023-07-22T12:58:22;5.50;;;1.10;;
25752;SDS011;13600;50.816;4.416;2023-07-22T13:00:47;1.95;;;1.30;;
25752;SDS011;13600;50.816;4.416;2023-07-22T13:03:13;3.50;;;1.17;;
25752;SDS011;13600;50.816;4.416;2023-07-22T13:05:39;5.22;;;1.33;;
25752;SDS011;13600;50.816;4.416;2023-07-22T13:08:06;5.05;;;1.38;;
25752;SDS011;13600;50.816;4.416;2023-07-22T13:10:31;7.05;;;1.65;;
25752;SDS011;13600;50.816;4.416;2023-07-22T13:12:59;3.30;;;1.50;;
25752;SDS011;13600;50.816;4.416;2023-07-22T13:15:24;4.30;;;1.52;;
25752;SDS011;13600;50.816;4.416;2023-07-22T13:17:51;3.45;;;1.30;;
25752;SDS011;13600;50.816;4.416;2023-07-22T13:20:17;3.83;;;1.35;;
25752;SDS011;13600;50.816;4.416;2023-07-22T13:22:42;3.05;;;1.40;;
25752;SDS011;13600;50.816;4.416;2023-07-22T13:25:08;6.82;;;1.70;;
25752;SDS011;13600;50.816;4.416;2023-07-22T13:27:36;5.10;;;1.77;;
25752;SDS011;13600;50.816;4.416;2023-07-22T13:30:05;2.30;;;1.60;;
25752;SDS011;13600;50.816;4.416;2023-07-22T13:32:33;3.97;;;1.80;;
25752;SDS011;13600;50.816;4.416;2023-07-22T13:34:59;4.72;;;1.63;;
25752;SDS011;13600;50.816;4.416;2023-07-22T13:37:26;3.75;;;1.60;;
25752;SDS011;13600;50.816;4.416;2023-07-22T13:39:51;5.40;;;1.77;;
25752;SDS011;13600;50.816;4.416;2023-07-22T13:42:18;4.57;;;1.70;;
25752;SDS011;13600;50.816;4.416;2023-07-22T13:44:44;3.72;;;1.60;;
25752;SDS011;13600;50.816;4.416;2023-07-22T13:47:09;4.53;;;1.60;;
25752;SDS011;13600;50.816;4.416;2023-07-22T13:49:35;4.20;;;1.70;;
25752;SDS011;13600;50.816;4.416;2023-07-22T13:52:00;5.07;;;1.77;;
25752;SDS011;13600;50.816;4.416;2023-07-22T13:54:26;3.17;;;2.10;;
25752;SDS011;13600;50.816;4.416;2023-07-22T13:56:52;5.20;;;1.80;;
25752;SDS011;13600;50.816;4.416;2023-07-22T13:59:17;3.83;;;1.83;;
25752;SDS011;13600;50.816;4.416;2023-07-22T14:01:44;6.72;;;1.88;;
25752;SDS011;13600;50.816;4.416;2023-07-22T14:04:10;6.70;;;2.20;;
25752;SDS011;13600;50.816;4.416;2023-07-22T14:06:36;6.25;;;1.95;;
25752;SDS011;13600;50.816;4.416;2023-07-22T14:09:01;5.35;;;2.10;;
25752;SDS011;13600;50.816;4.416;2023-07-22T14:11:27;6.57;;;1.83;;
25752;SDS011;13600;50.816;4.416;2023-07-22T14:13:53;6.95;;;1.95;;
25752;SDS011;13600;50.816;4.416;2023-07-22T14:16:18;3.22;;;1.73;;
25752;SDS011;13600;50.816;4.416;2023-07-22T14:18:44;3.00;;;1.60;;
25752;SDS011;13600;50.816;4.416;2023-07-22T14:21:09;3.95;;;1.70;;
25752;SDS011;13600;50.816;4.416;2023-07-22T14:23:36;6.30;;;2.17;;
25752;SDS011;13600;50.816;4.416;2023-07-22T14:26:02;4.32;;;1.90;;
25752;SDS011;13600;50.816;4.416;2023-07-22T14:28:27;4.80;;;1.65;;
25752;SDS011;13600;50.816;4.416;2023-07-22T14:30:53;3.85;;;1.90;;
25752;SDS011;13600;50.816;4.416;2023-07-22T14:33:19;6.68;;;1.70;;
25752;SDS011;13600;50.816;4.416;2023-07-22T14:35:44;5.35;;;1.73;;
25752;SDS011;13600;50.816;4.416;2023-07-22T14:38:10;4.53;;;1.55;;
25752;SDS011;13600;50.816;4.416;2023-07-22T14:40:36;6.05;;;1.83;;
25752;SDS011;13600;50.816;4.416;2023-07-22T14:43:02;5.18;;;1.50;;
25752;SDS011;13600;50.816;4.416;2023-07-22T14:45:28;12.80;;;2.20;;
25752;SDS011;13600;50.816;4.416;2023-07-22T14:47:54;6.70;;;1.83;;
25752;SDS011;13600;50.816;4.416;2023-07-22T14:50:20;4.00;;;1.60;;